Senador Canedo, Brazil
Current Conditions -  °F | °C
As of 2:00 PM on Sunday 25 Jan 2015 (Local Time) from SBGO Reporting Station
Broken Clouds Broken Clouds  
Wind Chill: 77°   Ceiling: 8000
Heat Index: 79°   Visibility: 6mi
Dew Point: 61°   Wind: 8mph
Humidity: 57%   Direction: 350°N
Pressure: 30.06"   Gusts: NA
Location:  16.71°S, 49.09°W
Report Text: SBGO 251600Z 35007KT 9999 SCT030 FEW045TCU BKN080 25/16 Q1018
Loading
Personal Weather Stations






























Interactive Weather Map New forecast layout! Learn more

10-Day Weather Forecast

Advertisements
Track Severe Weather on mobile